Time;durP1;ratioP1;P1;durP2;ratioP2;P2;SDS_P1;SDS_P2;PMS_P1;PMS_P2;Temp;Humidity;BMP_temperature;BMP_pressure;BME280_temperature;BME280_humidity;BME280_pressure;Samples;Min_cycle;Max_cycle;Signal;HPM_P1;HPM_P2
2022/10/05 00:01:41;;;;;;;7.73;3.27;;;10.70;65.20;;;;;;10351560;28;20232;-82
2022/10/05 00:07:11;;;;;;;10.13;4.03;;;10.80;69.30;;;;;;10364792;28;20533;-81
2022/10/05 00:12:33;;;;;;;7.30;3.37;;;10.80;75.20;;;;;;10395690;28;20542;-81
2022/10/05 00:17:54;;;;;;;10.97;3.70;;;10.80;72.30;;;;;;10388875;28;20232;-81
2022/10/05 00:23:25;;;;;;;7.97;4.20;;;10.80;72.90;;;;;;10399446;28;20190;-82
2022/10/05 00:28:47;;;;;;;12.13;5.10;;;10.80;73.80;;;;;;10401995;28;20308;-82
2022/10/05 00:34:08;;;;;;;10.77;5.00;;;10.80;91.80;;;;;;10372216;28;20240;-82
2022/10/05 00:39:30;;;;;;;12.73;5.23;;;10.80;85.40;;;;;;10366279;28;20517;-81
2022/10/05 00:45:33;;;;;;;11.83;5.23;;;10.80;89.20;;;;;;10399336;28;20272;-81
2022/10/05 00:51:19;;;;;;;9.60;4.53;;;10.90;97.40;;;;;;10267257;28;20258;-81
2022/10/05 00:57:22;;;;;;;8.87;3.63;;;10.90;95.30;;;;;;10222013;29;20222;-81
2022/10/05 01:02:52;;;;;;;8.17;3.90;;;10.80;99.90;;;;;;10224842;29;20254;-81
2022/10/05 01:08:57;;;;;;;9.43;4.10;;;10.70;99.80;;;;;;10237619;29;20600;-81
2022/10/05 01:14:51;;;;;;;5.97;3.57;;;10.60;99.90;;;;;;10203517;29;20261;-82
2022/10/05 01:20:17;;;;;;;11.43;5.70;;;10.60;98.80;;;;;;10234404;29;20256;-82
2022/10/05 01:25:47;;;;;;;9.43;4.23;;;10.60;95.70;;;;;;10279164;28;20243;-82
2022/10/05 01:31:20;;;;;;;8.17;4.13;;;10.50;99.90;;;;;;10369794;28;20378;-82
2022/10/05 01:37:16;;;;;;;8.40;5.20;;;10.40;99.90;;;;;;10369340;28;20256;-82
2022/10/05 01:42:49;;;;;;;7.43;4.77;;;10.40;99.90;;;;;;10386060;28;20204;-81
2022/10/05 01:48:34;;;;;;;8.63;4.37;;;10.40;99.90;;;;;;10368952;28;20229;-81
2022/10/05 01:54:24;;;;;;;7.47;3.77;;;10.20;99.90;;;;;;10398025;28;20225;-81
2022/10/05 02:00:13;;;;;;;11.07;3.90;;;10.20;99.90;;;;;;10385217;28;20196;-82
2022/10/05 02:05:45;;;;;;;6.20;3.50;;;10.20;99.90;;;;;;10381892;28;20223;-81
2022/10/05 02:11:10;;;;;;;7.43;3.33;;;10.10;99.90;;;;;;10371370;28;20194;-81
2022/10/05 02:16:39;;;;;;;6.70;3.57;;;10.10;99.90;;;;;;10367430;28;20240;-81
2022/10/05 02:22:19;;;;;;;7.40;4.13;;;10.10;99.90;;;;;;10411480;28;20200;-82
2022/10/05 02:27:48;;;;;;;5.47;3.37;;;10.10;99.90;;;;;;10370483;28;20432;-82
2022/10/05 02:33:17;;;;;;;4.47;2.90;;;10.00;99.90;;;;;;10397731;28;20507;-82
2022/10/05 02:38:51;;;;;;;5.60;3.20;;;10.10;99.90;;;;;;10380085;28;20214;-82
2022/10/05 02:44:41;;;;;;;7.50;3.87;;;10.10;99.90;;;;;;10367124;28;20198;-81
2022/10/05 02:50:42;;;;;;;9.87;4.43;;;10.00;99.90;;;;;;10366748;28;20224;-81
2022/10/05 02:56:19;;;;;;;6.73;5.13;;;10.00;99.90;;;;;;10377429;28;20201;-81
2022/10/05 03:01:43;;;;;;;12.27;6.57;;;9.90;99.90;;;;;;10376920;28;20223;-82
2022/10/05 03:07:28;;;;;;;11.80;5.57;;;9.90;99.90;;;;;;10366297;28;20263;-81
2022/10/05 03:13:04;;;;;;;10.50;5.40;;;10.00;99.90;;;;;;10382439;28;20274;-81
2022/10/05 03:19:05;;;;;;;8.83;4.23;;;10.00;99.90;;;;;;10359301;28;20285;-82
2022/10/05 03:24:35;;;;;;;8.40;4.10;;;10.00;99.90;;;;;;10216796;29;20247;-81
2022/10/05 03:30:01;;;;;;;11.10;4.37;;;10.10;99.90;;;;;;10203318;29;20229;-81
2022/10/05 03:35:37;;;;;;;10.63;4.00;;;10.00;99.90;;;;;;10216877;29;20211;-81
2022/10/05 03:41:03;;;;;;;6.73;4.67;;;10.00;99.90;;;;;;10203091;29;20213;-81
2022/10/05 03:46:44;;;;;;;6.53;4.33;;;10.00;99.90;;;;;;10218597;29;20567;-82
2022/10/05 03:52:10;;;;;;;8.80;4.70;;;10.10;99.90;;;;;;10190513;29;20310;-81
2022/10/05 03:57:39;;;;;;;8.53;4.77;;;10.00;99.90;;;;;;10188464;28;20483;-81
2022/10/05 04:03:31;;;;;;;6.87;4.57;;;10.00;99.90;;;;;;10340245;28;20267;-81
2022/10/05 04:09:17;;;;;;;7.03;4.47;;;9.90;99.90;;;;;;10369647;28;20308;-81
2022/10/05 04:14:49;;;;;;;7.73;4.53;;;9.90;99.90;;;;;;10351810;28;20286;-81
2022/10/05 04:20:32;;;;;;;14.63;6.17;;;9.90;99.90;;;;;;10380400;28;20381;-81
2022/10/05 04:25:58;;;;;;;11.40;5.83;;;9.90;99.90;;;;;;10369310;28;20212;-81
2022/10/05 04:31:55;;;;;;;10.70;5.97;;;9.90;99.90;;;;;;10380512;28;20200;-81
2022/10/05 04:37:24;;;;;;;11.83;5.10;;;9.80;99.90;;;;;;10377700;28;20252;-81
2022/10/05 04:43:00;;;;;;;7.50;4.83;;;9.90;99.90;;;;;;10363779;28;20254;-81
2022/10/05 04:49:13;;;;;;;16.83;5.70;;;10.00;99.90;;;;;;10380206;28;20605;-81
2022/10/05 04:55:07;;;;;;;16.87;10.80;;;10.00;99.90;;;;;;10175486;29;20240;-81
2022/10/05 05:00:46;;;;;;;32.40;19.10;;;9.90;99.90;;;;;;10178714;29;20196;-81
2022/10/05 05:06:16;;;;;;;14.93;7.93;;;9.90;99.90;;;;;;10185119;29;20239;-81
2022/10/05 05:12:10;;;;;;;13.50;7.03;;;10.00;99.90;;;;;;10185167;29;20241;-81
2022/10/05 05:17:36;;;;;;;16.83;8.77;;;10.00;99.90;;;;;;10181314;29;20302;-81
2022/10/05 05:23:12;;;;;;;16.67;7.10;;;10.00;99.90;;;;;;10195070;29;20406;-81
2022/10/05 05:29:01;;;;;;;10.33;5.07;;;10.00;99.90;;;;;;10254442;28;20315;-81
2022/10/05 05:34:46;;;;;;;18.30;6.37;;;10.10;99.90;;;;;;10345620;28;20191;-82
2022/10/05 05:40:26;;;;;;;14.47;6.07;;;10.10;99.90;;;;;;10356382;28;20211;-81
2022/10/05 05:46:03;;;;;;;23.17;12.90;;;10.20;99.90;;;;;;10355495;28;20278;-81
2022/10/05 05:51:44;;;;;;;25.77;11.23;;;10.30;99.90;;;;;;10369579;28;20239;-81
2022/10/05 05:57:22;;;;;;;18.13;9.87;;;10.30;99.90;;;;;;10404433;28;20231;-82
2022/10/05 06:02:46;;;;;;;51.83;22.70;;;10.30;99.90;;;;;;10356648;28;20198;-81
2022/10/05 06:08:26;;;;;;;20.53;10.67;;;10.40;99.90;;;;;;10368215;28;20258;-81
2022/10/05 06:14:04;;;;;;;38.23;18.83;;;10.40;99.90;;;;;;10371226;28;20238;-80
2022/10/05 06:19:31;;;;;;;34.73;16.33;;;10.50;99.90;;;;;;10398603;28;20208;-82
2022/10/05 06:25:00;;;;;;;19.13;10.60;;;10.50;99.90;;;;;;10384008;28;20508;-80
2022/10/05 06:30:22;;;;;;;21.40;10.60;;;10.50;99.90;;;;;;10381029;28;20283;-81
2022/10/05 06:35:54;;;;;;;15.60;8.33;;;10.50;99.90;;;;;;10383857;28;20221;-81
2022/10/05 06:41:53;;;;;;;13.43;7.47;;;10.60;99.90;;;;;;10353723;28;20281;-82
2022/10/05 06:47:52;;;;;;;33.47;16.97;;;10.60;99.90;;;;;;10366528;28;20452;-82
2022/10/05 06:53:55;;;;;;;21.07;9.10;;;10.80;99.90;;;;;;10353078;28;20429;-81
2022/10/05 07:00:01;;;;;;;13.13;8.27;;;10.90;83.60;;;;;;10353675;28;20258;-80
2022/10/05 07:05:46;;;;;;;24.47;13.03;;;11.00;73.20;;;;;;10345664;28;20191;-80
2022/10/05 07:11:08;;;;;;;14.70;7.17;;;11.00;68.20;;;;;;10339395;28;20202;-81
2022/10/05 07:16:51;;;;;;;11.63;8.03;;;11.00;58.00;;;;;;10371007;28;20428;-81
2022/10/05 07:22:25;;;;;;;9.83;6.40;;;11.10;48.50;;;;;;10379568;28;20300;-81
2022/10/05 07:28:10;;;;;;;10.33;6.50;;;11.10;43.70;;;;;;10388826;28;20243;-82
2022/10/05 07:33:46;;;;;;;17.57;7.33;;;11.20;49.40;;;;;;10377594;28;20295;-81
2022/10/05 07:39:12;;;;;;;13.20;6.30;;;11.30;34.90;;;;;;10378056;28;20216;-81
2022/10/05 07:45:14;;;;;;;14.50;6.90;;;11.30;38.10;;;;;;10362572;28;20205;-81
2022/10/05 07:51:18;;;;;;;15.53;7.73;;;11.40;27.20;;;;;;10375596;28;20229;-81
2022/10/05 07:56:42;;;;;;;14.63;8.10;;;11.40;38.90;;;;;;10360428;28;20207;-81
2022/10/05 08:02:39;;;;;;;13.33;7.10;;;11.50;28.00;;;;;;10373648;28;20392;-80
2022/10/05 08:08:09;;;;;;;9.50;5.70;;;11.70;21.90;;;;;;10360588;28;20233;-81
2022/10/05 08:13:46;;;;;;;10.17;7.20;;;11.80;13.20;;;;;;10374843;28;20209;-82
2022/10/05 08:19:48;;;;;;;10.70;6.33;;;12.00;1.00;;;;;;10360481;28;20219;-82
2022/10/05 08:25:25;;;;;;;18.90;8.93;;;12.00;1.00;;;;;;10294020;28;20212;-82
2022/10/05 08:31:19;;;;;;;12.13;6.90;;;12.30;1.00;;;;;;10289581;28;20247;-87
2022/10/05 08:37:04;;;;;;;14.07;6.83;;;12.50;1.00;;;;;;10264711;28;20218;-81
2022/10/05 08:42:34;;;;;;;11.50;4.73;;;12.70;1.00;;;;;;10312776;28;20207;-82
2022/10/05 08:48:10;;;;;;;15.10;6.33;;;12.80;1.00;;;;;;10312383;28;20246;-81
2022/10/05 08:53:49;;;;;;;9.17;6.07;;;13.00;1.00;;;;;;10295725;28;20261;-81
2022/10/05 08:59:53;;;;;;;10.83;6.30;;;13.10;1.00;;;;;;10338615;28;20466;-82
2022/10/05 09:05:45;;;;;;;10.20;5.57;;;13.30;1.00;;;;;;10392899;28;20210;-80
2022/10/05 09:11:12;;;;;;;8.83;6.20;;;13.50;1.00;;;;;;10393331;28;20235;-80
2022/10/05 09:17:19;;;;;;;6.97;4.90;;;13.50;1.00;;;;;;10395346;28;20557;-82
2022/10/05 09:23:07;;;;;;;13.67;7.10;;;13.40;1.00;;;;;;10380936;28;20209;-82
2022/10/05 09:28:56;;;;;;;21.00;8.43;;;13.40;1.00;;;;;;10377861;28;20553;-80
2022/10/05 09:34:43;;;;;;;8.87;5.73;;;13.40;1.00;;;;;;10393457;28;20194;-80
2022/10/05 09:40:40;;;;;;;8.37;5.27;;;13.50;1.00;;;;;;10380548;28;20208;-83
2022/10/05 09:46:20;;;;;;;10.57;4.90;;;13.80;1.00;;;;;;10372446;28;20227;-79
2022/10/05 09:51:51;;;;;;;8.30;5.13;;;;;;;;;;10392101;28;20252;-80
2022/10/05 09:57:27;;;;;;;11.87;6.67;;;14.50;1.00;;;;;;10353460;28;20255;-80
2022/10/05 10:03:20;;;;;;;17.70;12.37;;;14.60;99.90;;;;;;10322014;28;20660;-81
2022/10/05 10:09:19;;;;;;;11.47;5.50;;;14.60;99.90;;;;;;10321612;28;20240;-81
2022/10/05 10:14:52;;;;;;;14.53;6.57;;;14.60;99.90;;;;;;10350976;28;20247;-79
2022/10/05 10:20:23;;;;;;;9.50;5.80;;;14.70;99.90;;;;;;10384243;28;20208;-82
2022/10/05 10:25:45;;;;;;;9.45;5.22;;;15.00;99.90;;;;;;10348789;28;20557;-80
2022/10/05 10:31:33;;;;;;;8.68;4.80;;;15.20;97.60;;;;;;10338084;28;20452;-83
2022/10/05 10:37:33;;;;;;;18.95;7.35;;;15.20;1.00;;;;;;10335597;28;20546;-83
2022/10/05 10:43:03;;;;;;;8.73;5.27;;;15.20;1.00;;;;;;10229154;29;20293;-79
2022/10/05 10:48:50;;;;;;;12.10;5.20;;;15.20;1.00;;;;;;10218405;29;20248;-81
2022/10/05 10:54:31;;;;;;;9.38;4.57;;;15.00;1.00;;;;;;10239349;29;20306;-81
2022/10/05 10:59:58;;;;;;;11.75;5.47;;;15.00;1.00;;;;;;10151184;29;20620;-81
2022/10/05 11:05:30;;;;;;;7.40;4.18;;;15.10;1.00;;;;;;10163022;29;20261;-81
2022/10/05 11:11:13;;;;;;;9.52;4.95;;;15.20;1.00;;;;;;10146291;29;20247;-85
2022/10/05 11:17:30;;;;;;;10.27;4.53;;;15.20;1.00;;;;;;10271960;28;20213;-82
2022/10/05 11:23:06;;;;;;;6.38;3.75;;;15.10;1.00;;;;;;10198995;29;20521;-82
2022/10/05 11:28:56;;;;;;;11.25;4.53;;;15.00;1.00;;;;;;10185857;29;20260;-85
2022/10/05 11:34:54;;;;;;;7.28;3.67;;;15.00;1.00;;;;;;10188333;29;20225;-84
2022/10/05 11:40:50;;;;;;;8.50;4.60;;;15.10;1.00;;;;;;10207572;29;20228;-83
2022/10/05 11:46:34;;;;;;;10.65;5.05;;;15.20;1.00;;;;;;10218398;29;20211;-84
2022/10/05 11:52:26;;;;;;;10.68;4.45;;;15.20;1.00;;;;;;10209279;29;20277;-82
2022/10/05 11:58:06;;;;;;;11.38;5.25;;;15.20;1.00;;;;;;10389146;28;20211;-81
2022/10/05 12:04:12;;;;;;;12.38;5.32;;;15.40;1.00;;;;;;10362503;28;20207;-81
2022/10/05 12:09:33;;;;;;;8.85;4.68;;;15.50;1.00;;;;;;10282503;28;20246;-86
2022/10/05 12:15:26;;;;;;;12.13;5.97;;;15.70;1.00;;;;;;10298905;28;20203;-81
2022/10/05 12:21:26;;;;;;;6.45;4.70;;;15.80;1.00;;;;;;10273238;28;20214;-82
2022/10/05 12:26:57;;;;;;;8.80;5.50;;;16.10;99.90;;;;;;10157940;29;20531;-85
2022/10/05 12:33:08;;;;;;;12.57;6.28;;;16.50;99.90;;;;;;10157465;29;20287;-82
2022/10/05 12:38:32;;;;;;;8.52;4.85;;;17.00;1.00;;;;;;10095878;29;20211;-81
2022/10/05 12:44:07;;;;;;;9.35;3.83;;;17.70;1.00;;;;;;10099247;29;20245;-85
2022/10/05 12:49:47;;;;;;;6.00;4.07;;;17.80;1.00;;;;;;10107602;29;20722;-80
2022/10/05 12:55:25;;;;;;;8.50;4.88;;;17.50;1.00;;;;;;10101102;29;20326;-88
2022/10/05 13:01:01;;;;;;;20.13;9.95;;;17.00;1.00;;;;;;10132502;28;20216;-83
2022/10/05 13:06:42;;;;;;;13.57;7.45;;;16.60;70.40;;;;;;10243321;28;20506;-83
2022/10/05 13:12:22;;;;;;;10.05;6.85;;;16.60;99.90;;;;;;10328252;28;20212;-85
2022/10/05 13:17:49;;;;;;;13.25;5.15;;;16.60;99.90;;;;;;10367196;28;20242;-83
2022/10/05 13:23:41;;;;;;;8.85;6.05;;;16.50;1.00;;;;;;10383109;28;20579;-83
2022/10/05 13:29:23;;;;;;;9.20;6.57;;;16.30;1.00;;;;;;10228587;29;20247;-82
2022/10/05 13:35:21;;;;;;;17.83;6.72;;;16.30;1.00;;;;;;10218708;29;20493;-83
2022/10/05 13:41:15;;;;;;;15.90;6.72;;;16.10;1.00;;;;;;10216333;29;20289;-84
2022/10/05 13:46:48;;;;;;;15.95;7.45;;;16.00;1.00;;;;;;10089873;29;20321;-83
2022/10/05 13:52:37;;;;;;;8.95;5.63;;;15.90;54.20;;;;;;10109409;29;20564;-84
2022/10/05 13:58:06;;;;;;;11.77;5.35;;;16.00;90.30;;;;;;10088875;29;20273;-83
2022/10/05 14:03:33;;;;;;;17.65;6.80;;;16.10;49.70;;;;;;10140362;29;20216;-83
2022/10/05 14:09:01;;;;;;;10.88;6.30;;;16.00;99.90;;;;;;10276101;29;20323;-82
2022/10/05 14:14:26;;;;;;;8.35;6.32;;;15.70;99.90;;;;;;10249985;29;20216;-83
2022/10/05 14:19:50;;;;;;;13.20;7.53;;;15.60;99.90;;;;;;10274189;28;20578;-85
2022/10/05 14:25:16;;;;;;;15.52;6.07;;;15.30;1.00;;;;;;10376390;28;20201;-82
2022/10/05 14:30:39;;;;;;;11.65;7.53;;;15.20;1.00;;;;;;10349134;28;20229;-84
2022/10/05 14:36:01;;;;;;;12.27;6.55;;;15.20;1.00;;;;;;10379396;28;20204;-83
2022/10/05 14:41:26;;;;;;;18.43;11.23;;;15.00;1.00;;;;;;10378771;28;20220;-83
2022/10/05 14:47:10;;;;;;;14.13;7.60;;;14.90;1.00;;;;;;10373320;28;20201;-82
2022/10/05 14:52:33;;;;;;;17.33;10.43;;;14.80;99.90;;;;;;10369636;28;20244;-82
2022/10/05 14:58:12;;;;;;;13.05;7.93;;;14.70;99.90;;;;;;10359204;28;20208;-83
2022/10/05 15:03:46;;;;;;;13.73;6.87;;;14.70;99.90;;;;;;10374834;28;20514;-83
2022/10/05 15:09:21;;;;;;;16.90;7.83;;;14.60;99.90;;;;;;10383180;28;20224;-83
2022/10/05 15:14:45;;;;;;;16.70;11.10;;;14.60;1.00;;;;;;10378365;28;20200;-84
2022/10/05 15:20:23;;;;;;;26.83;13.60;;;14.50;1.00;;;;;;10367398;28;20207;-84
2022/10/05 15:26:07;;;;;;;21.87;12.90;;;14.40;1.00;;;;;;10365554;28;20195;-84
2022/10/05 15:31:50;;;;;;;31.53;18.43;;;14.30;1.00;;;;;;10377128;28;20270;-84
2022/10/05 15:37:23;;;;;;;30.83;18.23;;;14.20;1.00;;;;;;10390315;28;20196;-83
2022/10/05 15:42:44;;;;;;;25.83;15.67;;;14.20;1.00;;;;;;10381105;28;20188;-83
2022/10/05 15:48:57;;;;;;;23.17;11.70;;;14.10;1.00;;;;;;10365400;28;20295;-82
2022/10/05 15:54:49;;;;;;;15.50;9.77;;;14.00;1.00;;;;;;10395851;28;20256;-82
2022/10/05 16:00:19;;;;;;;13.03;8.90;;;13.90;1.00;;;;;;10400814;28;20204;-83
2022/10/05 16:12:04;;;;;;;20.87;13.97;;;13.60;1.00;;;;;;10397503;28;20295;-83
2022/10/05 16:17:46;;;;;;;27.92;17.23;;;13.60;1.00;;;;;;10364959;28;20208;-83
2022/10/05 16:23:33;;;;;;;40.87;25.80;;;13.50;1.00;;;;;;10351796;28;20228;-83
2022/10/05 16:29:10;;;;;;;46.00;27.90;;;13.40;1.00;;;;;;10380248;28;20424;-83
2022/10/05 16:34:43;;;;;;;52.23;30.73;;;13.30;1.00;;;;;;10378020;28;20232;-83
2022/10/05 16:40:10;;;;;;;49.40;30.80;;;13.20;1.00;;;;;;10364569;28;20398;-85
2022/10/05 16:45:39;;;;;;;49.93;29.47;;;13.10;9.70;;;;;;10365610;28;20199;-83
2022/10/05 16:51:55;;;;;;;46.83;29.77;;;12.90;19.00;;;;;;10381019;28;20293;-82
2022/10/05 16:57:22;;;;;;;50.67;31.60;;;12.80;24.70;;;;;;10360676;28;20203;-82
2022/10/05 17:03:01;;;;;;;46.83;29.87;;;12.60;21.00;;;;;;10390084;28;20202;-84
2022/10/05 17:08:41;;;;;;;58.50;33.23;;;12.50;30.00;;;;;;10375617;28;20234;-91
2022/10/05 17:14:34;;;;;;;44.80;30.63;;;12.40;42.10;;;;;;10375807;28;20268;-84
2022/10/05 17:20:18;;;;;;;86.37;32.20;;;12.30;57.50;;;;;;10384528;28;20207;-85
2022/10/05 17:25:47;;;;;;;46.43;29.57;;;12.30;92.90;;;;;;10362164;28;20195;-87
2022/10/05 17:31:20;;;;;;;47.93;28.77;;;12.30;92.60;;;;;;10384876;28;20314;-82
2022/10/05 17:36:46;;;;;;;42.73;25.30;;;12.20;71.20;;;;;;10386928;28;20195;-82
2022/10/05 17:42:44;;;;;;;37.77;25.37;;;12.00;66.30;;;;;;10370988;28;20257;-87
2022/10/05 17:48:09;;;;;;;37.57;24.73;;;11.90;61.60;;;;;;10202723;29;20232;-81
2022/10/05 17:59:45;;;;;;;36.30;21.70;;;11.70;60.30;;;;;;10189632;29;20210;-88
2022/10/05 18:05:16;;;;;;;36.17;23.03;;;11.60;79.60;;;;;;10235911;29;20419;-88
2022/10/05 18:11:05;;;;;;;33.37;21.10;;;11.50;77.80;;;;;;10223396;29;20241;-88
2022/10/05 18:16:55;;;;;;;29.90;20.53;;;11.50;99.90;;;;;;10200603;29;20218;-85
2022/10/05 18:22:18;;;;;;;29.10;19.30;;;11.50;97.60;;;;;;10326538;28;20207;-85
2022/10/05 18:28:02;;;;;;;33.33;19.37;;;11.40;94.40;;;;;;10358719;28;20496;-85
2022/10/05 18:33:45;;;;;;;36.97;20.37;;;11.30;99.90;;;;;;10394551;28;20205;-84
2022/10/05 18:39:25;;;;;;;29.30;19.43;;;11.00;89.60;;;;;;10380328;28;20198;-89
2022/10/05 18:44:52;;;;;;;34.40;23.07;;;11.00;84.20;;;;;;10380506;28;20200;-87
2022/10/05 18:50:25;;;;;;;49.47;28.23;;;10.90;91.20;;;;;;10396084;28;20231;-85
2022/10/05 18:56:13;;;;;;;52.00;28.30;;;10.80;94.10;;;;;;10356847;28;20223;-84
2022/10/05 19:01:34;;;;;;;60.50;30.87;;;10.70;72.80;;;;;;10170078;29;20508;-85
2022/10/05 19:07:06;;;;;;;53.23;33.43;;;10.70;91.30;;;;;;10166552;29;20213;-85
2022/10/05 19:12:43;;;;;;;61.57;36.97;;;10.70;66.30;;;;;;10179423;29;20248;-87
2022/10/05 19:18:23;;;;;;;69.80;38.63;;;10.60;90.00;;;;;;10176114;29;20547;-86
2022/10/05 19:24:17;;;;;;;71.50;41.27;;;10.60;79.70;;;;;;10181185;29;20293;-85
2022/10/05 19:30:16;;;;;;;73.33;41.03;;;10.50;61.40;;;;;;10180462;29;20241;-84
2022/10/05 19:36:08;;;;;;;73.90;42.90;;;10.50;71.10;;;;;;10200500;28;20231;-85
2022/10/05 19:41:35;;;;;;;74.93;40.10;;;10.50;79.20;;;;;;10317290;28;20216;-87
2022/10/05 19:47:30;;;;;;;69.93;37.23;;;10.40;70.60;;;;;;10333020;28;20204;-86
2022/10/05 19:53:07;;;;;;;70.87;41.33;;;;;;;;;;10353701;28;20236;-85
2022/10/05 19:58:30;;;;;;;62.40;37.20;;;10.00;95.30;;;;;;10329480;28;20232;-86
2022/10/05 20:03:52;;;;;;;73.13;39.70;;;10.10;63.20;;;;;;10360231;28;20189;-87
2022/10/05 20:09:22;;;;;;;63.43;37.43;;;10.00;52.60;;;;;;10356236;28;20300;-86
2022/10/05 20:20:20;;;;;;;58.50;35.60;;;10.00;37.20;;;;;;10357445;28;20200;-89
2022/10/05 20:20:34;;;;;;;54.17;30.47;;;10.00;36.40;;;;;;10368599;28;20203;-87
2022/10/05 20:31:35;;;;;;;45.40;28.60;;;9.80;34.20;;;;;;10393990;28;20250;-85
2022/10/05 20:36:57;;;;;;;42.57;25.93;;;9.80;52.40;;;;;;10385669;28;20392;-86
2022/10/05 20:42:21;;;;;;;38.07;23.40;;;9.80;27.60;;;;;;10407498;28;20192;-87
2022/10/05 20:47:45;;;;;;;43.13;24.40;;;9.70;20.00;;;;;;10349116;28;20203;-85
2022/10/05 20:53:07;;;;;;;54.40;28.17;;;9.70;15.70;;;;;;10351794;28;20557;-85
2022/10/05 20:58:31;;;;;;;42.07;27.17;;;9.60;49.20;;;;;;10348372;28;20230;-87
2022/10/05 21:03:53;;;;;;;48.40;27.33;;;9.60;55.50;;;;;;10349519;28;20198;-87
2022/10/05 21:09:18;;;;;;;46.23;25.83;;;9.50;51.80;;;;;;10361055;28;20247;-86
2022/10/05 21:14:39;;;;;;;40.27;22.00;;;9.60;91.80;;;;;;10360925;28;20230;-85
2022/10/05 21:20:01;;;;;;;37.80;20.30;;;9.40;92.60;;;;;;10360493;28;20212;-86
2022/10/05 21:25:22;;;;;;;28.57;17.23;;;9.40;92.80;;;;;;10371341;28;20199;-85
2022/10/05 21:30:43;;;;;;;21.87;14.00;;;9.40;99.90;;;;;;10374567;28;20227;-84
2022/10/05 21:36:05;;;;;;;22.07;13.07;;;9.50;99.90;;;;;;10387994;28;20265;-83
2022/10/05 21:41:26;;;;;;;26.30;13.67;;;9.90;99.90;;;;;;10384529;28;20388;-85
2022/10/05 21:46:48;;;;;;;24.67;11.73;;;10.10;99.90;;;;;;10383877;28;20202;-85
2022/10/05 21:52:09;;;;;;;22.13;12.93;;;10.30;99.90;;;;;;10398180;28;20252;-87
2022/10/05 21:57:32;;;;;;;19.40;11.77;;;10.40;99.90;;;;;;10397801;28;20200;-84
2022/10/05 22:02:54;;;;;;;24.07;13.03;;;10.40;99.90;;;;;;10383770;28;20291;-85
2022/10/05 22:08:24;;;;;;;31.73;14.57;;;10.50;99.90;;;;;;10383012;28;20306;-85
2022/10/05 22:13:48;;;;;;;27.17;13.50;;;10.50;99.90;;;;;;10398100;28;20201;-85
2022/10/05 22:19:15;;;;;;;27.77;14.10;;;10.50;99.90;;;;;;10373770;28;20447;-85
2022/10/05 22:24:36;;;;;;;22.87;12.10;;;10.50;99.90;;;;;;10385187;28;20202;-85
2022/10/05 22:29:57;;;;;;;23.47;12.87;;;10.50;99.90;;;;;;10354899;28;20426;-85
2022/10/05 22:35:18;;;;;;;16.53;10.27;;;10.50;99.90;;;;;;10382020;28;20199;-85
2022/10/05 22:40:41;;;;;;;16.97;10.30;;;10.50;99.90;;;;;;10368957;28;20265;-85
2022/10/05 22:46:11;;;;;;;15.07;10.17;;;10.50;99.90;;;;;;10371778;28;20187;-85
2022/10/05 22:51:32;;;;;;;17.33;10.20;;;10.50;99.90;;;;;;10370127;28;20276;-84
2022/10/05 22:56:54;;;;;;;18.67;10.20;;;10.50;99.90;;;;;;10354483;28;20196;-87
2022/10/05 23:02:17;;;;;;;14.73;8.93;;;10.50;99.90;;;;;;10383894;28;20206;-85
2022/10/05 23:07:40;;;;;;;15.50;8.73;;;10.60;99.90;;;;;;10383605;28;20203;-85
2022/10/05 23:13:02;;;;;;;18.13;10.43;;;10.60;99.90;;;;;;10365231;28;20249;-85
2022/10/05 23:18:23;;;;;;;13.17;9.23;;;10.50;99.90;;;;;;10373807;28;20292;-85
2022/10/05 23:23:47;;;;;;;12.40;9.40;;;10.50;99.90;;;;;;10366536;28;20257;-86
2022/10/05 23:29:08;;;;;;;12.23;9.27;;;10.50;99.90;;;;;;10353011;28;20225;-85
2022/10/05 23:34:30;;;;;;;15.60;9.30;;;10.50;99.90;;;;;;10379608;28;20238;-85
2022/10/05 23:39:51;;;;;;;13.47;9.20;;;10.50;99.90;;;;;;10365899;28;20196;-86
2022/10/05 23:45:13;;;;;;;13.40;8.77;;;10.50;99.90;;;;;;10368993;28;20266;-85
2022/10/05 23:50:34;;;;;;;11.33;8.77;;;10.40;99.90;;;;;;10365467;28;20230;-85
2022/10/05 23:55:56;;;;;;;10.93;8.17;;;10.40;99.90;;;;;;10365836;28;20206;-85
